BNC weather

Beni Airport
Beni, Nord-Kivu Province, Congo (Kinshasa)

Public forecast

Using degrees Celsius for public forecast. Weather courtesy of forecast.io.

Closest aviation weather report (METAR) to Beni Airport

Report is more than 6 hours old.

Closest report is Kasese Airport, 44.4 nm (82.1 km) ESE. Retrieved 2019/11/10 06:30 UTC (5 months ago):

HUKS 100630Z 07002KT 9999 FEW022 FEW024CB 25/19 Q1016

Closest aviation forecast (TAF) to Beni Airport

Closest forecast is Entebbe International Airport, 181.1 nm (335.5 km) E. Retrieved 2020-04-08 00:15 UTC (4 hours ago):

TAF TAF HUEN 072300Z 0800/0906 17012KT 9999 FEW021 FEW023CB TEMPO 0802/0806 36010KT 8000 -TSRA SCT017 FEW019CB BKN100 BECMG 0808/0811 -RA SCT020 FEW022CB BECMG 0821/0824 25005KT NSW TEMPO 0902/0906 VRB08KT 9000 -TSRA BKN016 FEW018CB